createdAt,value
2022-08-09T00:01:55.121Z,102881.59
2022-08-09T00:04:34.140Z,102883.34
2022-08-09T00:07:10.561Z,102880.66
2022-08-09T00:09:40.029Z,102895.69
2022-08-09T00:12:15.462Z,102896.53
2022-08-09T00:14:55.975Z,102884.09
2022-08-09T00:18:05.604Z,102888.50
2022-08-09T00:20:17.177Z,102890.22
2022-08-09T00:22:47.291Z,102884.88
2022-08-09T00:25:23.251Z,102889.28
2022-08-09T00:27:52.247Z,102891.03
2022-08-09T00:30:25.327Z,102887.47
2022-08-09T00:32:55.857Z,102892.75
2022-08-09T00:35:26.453Z,102889.13
2022-08-09T00:37:58.018Z,102892.66
2022-08-09T00:40:30.964Z,102891.72
2022-08-09T00:44:17.022Z,102883.72
2022-08-09T00:45:53.873Z,102888.06
2022-08-09T00:48:23.100Z,102883.63
2022-08-09T00:50:52.238Z,102882.66
2022-08-09T00:53:24.390Z,102891.53
2022-08-09T00:56:04.193Z,102891.47
2022-08-09T00:58:35.882Z,102895.00
2022-08-09T01:01:16.436Z,102887.84
2022-08-09T01:04:04.820Z,102891.34
2022-08-09T01:06:55.576Z,102883.34
2022-08-09T01:09:37.341Z,102883.28
2022-08-09T01:12:35.341Z,102885.91
2022-08-09T01:15:17.793Z,102890.25
2022-08-09T01:18:05.057Z,102891.09
2022-08-09T01:21:25.044Z,102892.84
2022-08-09T01:24:28.842Z,102884.78
2022-08-09T01:27:05.924Z,102895.38
2022-08-09T01:30:05.718Z,102895.28
2022-08-09T01:32:48.559Z,102894.38
2022-08-09T01:35:45.680Z,102900.53
2022-08-09T01:38:19.879Z,102904.91
2022-08-09T01:41:04.736Z,102902.19
2022-08-09T01:43:51.013Z,102900.41
2022-08-09T01:46:26.765Z,102908.31
2022-08-09T01:49:10.165Z,102917.13
2022-08-09T01:51:53.922Z,102902.94
2022-08-09T01:54:33.455Z,102901.16
2022-08-09T01:57:08.237Z,102907.31
2022-08-09T01:59:41.089Z,102911.72
2022-08-09T02:02:30.925Z,102903.72
2022-08-09T02:05:15.396Z,102905.47
2022-08-09T02:08:39.435Z,102909.88
2022-08-09T02:10:42.824Z,102900.09
2022-08-09T02:13:22.134Z,102901.81
2022-08-09T02:15:57.639Z,102912.41
2022-08-09T02:18:30.871Z,102907.06
2022-08-09T02:21:17.162Z,102900.88
2022-08-09T02:23:56.465Z,102900.84
2022-08-09T02:26:28.266Z,102912.31
2022-08-09T02:29:16.583Z,102914.06
2022-08-09T02:31:47.489Z,102912.22
2022-08-09T02:34:38.585Z,102908.66
2022-08-09T02:37:14.869Z,102909.53
2022-08-09T02:39:49.586Z,102908.63
2022-08-09T02:42:31.144Z,102905.03
2022-08-09T02:45:11.635Z,102900.63
2022-08-09T02:47:58.090Z,102907.66
2022-08-09T02:50:33.337Z,102898.78
2022-08-09T02:53:08.211Z,102900.53
2022-08-09T02:55:46.239Z,102899.66
2022-08-09T02:58:35.569Z,102898.75
2022-08-09T03:01:08.220Z,102890.75
2022-08-09T03:04:17.504Z,102898.66
2022-08-09T03:06:30.548Z,102888.06
2022-08-09T03:09:01.815Z,102888.94
2022-08-09T03:12:06.287Z,102889.78
2022-08-09T03:14:21.871Z,102899.47
2022-08-09T03:16:59.315Z,102902.09
2022-08-09T03:19:52.141Z,102896.75
2022-08-09T03:22:25.426Z,102901.16
2022-08-09T03:25:19.855Z,102902.03
2022-08-09T03:27:52.409Z,102901.13
2022-08-09T03:30:29.781Z,102899.38
2022-08-09T03:33:17.309Z,102899.34
2022-08-09T03:36:16.169Z,102898.44
2022-08-09T03:38:41.886Z,102893.13
2022-08-09T03:41:16.667Z,102897.50
2022-08-09T03:44:03.513Z,102901.03
2022-08-09T03:46:36.857Z,102902.81
2022-08-09T03:49:09.027Z,102894.78
2022-08-09T03:51:57.793Z,102900.06
2022-08-09T03:54:34.275Z,102893.88
2022-08-09T03:57:12.416Z,102901.81
2022-08-09T03:59:55.804Z,102900.00
2022-08-09T04:02:29.928Z,102910.59
2022-08-09T04:05:06.298Z,102901.72
2022-08-09T04:07:52.843Z,102907.91
2022-08-09T04:10:29.444Z,102903.50
2022-08-09T04:13:04.235Z,102911.44
2022-08-09T04:15:40.679Z,102914.09
2022-08-09T04:18:22.055Z,102912.34
2022-08-09T04:20:51.324Z,102914.13
2022-08-09T04:23:23.379Z,102911.53
2022-08-09T04:25:55.884Z,102917.72
2022-08-09T04:28:30.652Z,102914.19
2022-08-09T04:31:09.011Z,102909.81
2022-08-09T04:33:52.381Z,102908.03
2022-08-09T04:36:25.155Z,102915.97
2022-08-09T04:38:55.199Z,102910.69
2022-08-09T04:41:32.197Z,102923.97
2022-08-09T04:44:06.865Z,102918.72
2022-08-09T04:46:58.539Z,102912.59
2022-08-09T04:49:52.863Z,102911.72
2022-08-09T04:52:26.907Z,102922.44
2022-08-09T04:55:01.511Z,102925.31
2022-08-09T04:57:53.916Z,102920.47
2022-08-09T05:00:22.306Z,102913.28
2022-08-09T05:02:52.700Z,102918.81
2022-08-09T05:05:31.514Z,102920.31
2022-08-09T05:08:02.195Z,102918.81
2022-08-09T05:10:30.712Z,102917.16
2022-08-09T05:12:59.455Z,102916.28
2022-08-09T05:15:39.260Z,102934.09
2022-08-09T05:18:37.483Z,102935.88
2022-08-09T05:21:09.702Z,102936.78
2022-08-09T05:23:54.129Z,102934.06
2022-08-09T05:26:36.853Z,102934.75
2022-08-09T05:29:21.121Z,102919.22
2022-08-09T05:31:57.297Z,102922.19
2022-08-09T05:34:30.868Z,102918.84
2022-08-09T05:37:06.476Z,102913.63
2022-08-09T05:39:43.212Z,102905.53
2022-08-09T05:42:17.552Z,102909.59
2022-08-09T05:44:51.987Z,102912.69
2022-08-09T05:47:22.848Z,102925.47
2022-08-09T05:50:30.772Z,102929.94
2022-08-09T05:52:53.595Z,102929.28
2022-08-09T05:55:24.297Z,102929.63
2022-08-09T05:57:56.370Z,102937.84
2022-08-09T06:00:29.010Z,102940.72
2022-08-09T06:02:59.717Z,102942.41
2022-08-09T06:05:31.067Z,102948.63
2022-08-09T06:08:19.374Z,102951.22
2022-08-09T06:10:55.754Z,102949.28
2022-08-09T06:13:28.368Z,102941.22
2022-08-09T06:16:05.529Z,102945.00
2022-08-09T06:18:34.996Z,102950.56
2022-08-09T06:21:06.715Z,102957.88
2022-08-09T06:23:55.832Z,102949.91
2022-08-09T06:26:28.571Z,102954.47
2022-08-09T06:29:00.247Z,102963.44
2022-08-09T06:31:40.143Z,102973.28
2022-08-09T06:34:26.022Z,102979.53
2022-08-09T06:36:58.983Z,102977.75
2022-08-09T06:39:49.087Z,102980.41
2022-08-09T06:42:24.694Z,102978.63
2022-08-09T06:44:59.006Z,102992.91
2022-08-09T06:47:39.537Z,102992.03
2022-08-09T06:50:14.195Z,102991.13
2022-08-09T06:52:49.110Z,103003.59
2022-08-09T06:55:23.031Z,103005.41
2022-08-09T06:58:02.828Z,103014.31
2022-08-09T07:00:56.139Z,103004.47
2022-08-09T07:03:28.528Z,103007.19
2022-08-09T07:06:04.893Z,103001.81
2022-08-09T07:08:35.273Z,103013.41
2022-08-09T07:11:06.936Z,103006.28
2022-08-09T07:13:45.018Z,103013.41
2022-08-09T07:16:42.389Z,103008.94
2022-08-09T07:19:15.514Z,103015.19
2022-08-09T07:21:55.861Z,103017.84
2022-08-09T07:24:32.109Z,103011.63
2022-08-09T07:27:26.945Z,103013.41
2022-08-09T07:30:03.780Z,103011.66
2022-08-09T07:32:34.664Z,103010.75
2022-08-09T07:35:10.836Z,103018.75
2022-08-09T07:37:44.378Z,103017.88
2022-08-09T07:40:20.351Z,103016.09
2022-08-09T07:42:58.685Z,103008.03
2022-08-09T07:45:37.336Z,103007.16
2022-08-09T07:48:25.825Z,103001.78
2022-08-09T07:51:09.422Z,103002.69
2022-08-09T07:54:07.390Z,103005.38
2022-08-09T07:56:44.735Z,103000.00
2022-08-09T07:59:25.682Z,102997.34
2022-08-09T08:02:09.532Z,103001.81
2022-08-09T08:04:38.996Z,103003.56
2022-08-09T08:07:15.432Z,103009.78
2022-08-09T08:10:05.720Z,103014.25
2022-08-09T08:12:43.131Z,103018.72
2022-08-09T08:15:16.546Z,103011.56
2022-08-09T08:17:53.884Z,103020.47
2022-08-09T08:20:27.247Z,103014.19
2022-08-09T08:23:01.664Z,103016.94
2022-08-09T08:25:40.036Z,103021.41
2022-08-09T08:28:31.991Z,103024.94
2022-08-09T08:31:14.383Z,103035.66
2022-08-09T08:33:52.849Z,103025.81
2022-08-09T08:36:29.026Z,103032.94
2022-08-09T08:39:00.202Z,103028.50
2022-08-09T08:41:38.726Z,103029.34
2022-08-09T08:44:27.204Z,103028.44
2022-08-09T08:47:02.636Z,103037.38
2022-08-09T08:49:46.665Z,103034.72
2022-08-09T08:55:08.940Z,103023.13
2022-08-09T08:57:38.133Z,103013.38
2022-08-09T09:00:20.367Z,103016.91
2022-08-09T09:03:08.175Z,103028.47
2022-08-09T09:06:00.052Z,103024.88
2022-08-09T09:08:41.041Z,103019.53
2022-08-09T09:11:12.022Z,103015.94
2022-08-09T09:13:55.064Z,103018.53
2022-08-09T09:16:34.041Z,103016.69
2022-08-09T09:19:37.534Z,103017.50
2022-08-09T09:22:15.975Z,103023.78
2022-08-09T09:26:01.652Z,103007.75
2022-08-09T09:28:04.364Z,103013.13
2022-08-09T09:30:41.098Z,103015.75
2022-08-09T09:33:16.331Z,103016.63
2022-08-09T09:36:02.625Z,103013.91
2022-08-09T09:38:52.304Z,103006.72
2022-08-09T09:41:24.179Z,103009.38
2022-08-09T09:44:11.782Z,103020.09
2022-08-09T09:46:50.879Z,103020.97
2022-08-09T09:49:23.504Z,103016.41
2022-08-09T09:52:35.664Z,103022.59
2022-08-09T09:55:27.575Z,103027.94
2022-08-09T09:58:17.046Z,103018.09
2022-08-09T10:00:54.076Z,103025.19
2022-08-09T10:03:56.977Z,103032.28
2022-08-09T10:06:32.174Z,103020.66
2022-08-09T10:09:11.721Z,103020.59
2022-08-09T10:12:14.864Z,103015.16
2022-08-09T10:14:51.761Z,103003.41
2022-08-09T10:17:55.065Z,102996.22
2022-08-09T10:20:27.512Z,102989.03
2022-08-09T10:23:30.333Z,102999.75
2022-08-09T10:26:10.661Z,102998.78
2022-08-09T10:28:41.217Z,102997.00
2022-08-09T10:34:08.941Z,103000.47
2022-08-09T10:36:40.309Z,102992.38
2022-08-09T10:39:15.510Z,102996.78
2022-08-09T10:41:47.762Z,102995.00
2022-08-09T10:44:22.919Z,103006.59
2022-08-09T10:48:19.381Z,103002.09
2022-08-09T10:51:00.170Z,103001.13
2022-08-09T10:53:37.976Z,103004.78
2022-08-09T10:56:22.657Z,103000.28
2022-08-09T10:58:53.945Z,103004.72
2022-08-09T11:03:13.437Z,103011.03
2022-08-09T11:04:31.252Z,103008.41
2022-08-09T11:07:01.619Z,103010.16
2022-08-09T11:09:41.323Z,103009.28
2022-08-09T11:12:18.390Z,103019.97
2022-08-09T11:14:51.443Z,102997.59
2022-08-09T11:17:22.815Z,103002.91
2022-08-09T11:20:11.927Z,102998.44
2022-08-09T11:22:55.650Z,102995.59
2022-08-09T11:25:44.834Z,102998.13
2022-08-09T11:28:33.718Z,102999.00
2022-08-09T11:31:34.221Z,103003.41
2022-08-09T11:34:13.860Z,103003.41
2022-08-09T11:36:47.226Z,102998.94
2022-08-09T11:39:17.222Z,103004.28
2022-08-09T11:41:45.935Z,103010.53
2022-08-09T11:44:17.852Z,103009.63
2022-08-09T11:46:59.627Z,103006.94
2022-08-09T11:50:53.223Z,103004.25
2022-08-09T11:53:28.041Z,102993.38
2022-08-09T11:56:22.896Z,102988.78
2022-08-09T11:59:12.204Z,102986.13
2022-08-09T12:02:18.008Z,102996.72
2022-08-09T12:04:37.492Z,102988.63
2022-08-09T12:07:08.437Z,102991.31
2022-08-09T12:09:37.447Z,102988.59
2022-08-09T12:12:12.028Z,102979.63
2022-08-09T12:15:03.858Z,102977.81
2022-08-09T12:17:42.822Z,102975.97
2022-08-09T12:20:21.483Z,102990.41
2022-08-09T12:23:00.427Z,102975.06
2022-08-09T12:25:37.511Z,102970.44
2022-08-09T12:28:58.298Z,102970.44
2022-08-09T12:31:31.266Z,102975.97
2022-08-09T12:34:10.564Z,102975.09
2022-08-09T12:36:58.648Z,102966.16
2022-08-09T12:40:01.340Z,102972.28
2022-08-09T12:42:34.019Z,102966.06
2022-08-09T12:45:07.086Z,102968.66
2022-08-09T12:47:55.044Z,102957.72
2022-08-09T12:50:25.255Z,102965.69
2022-08-09T12:53:08.089Z,102955.00
2022-08-09T12:56:12.654Z,102960.44
2022-08-09T12:58:27.875Z,102956.88
2022-08-09T13:00:57.947Z,102955.28
2022-08-09T13:03:52.626Z,102947.38
2022-08-09T13:06:25.405Z,102955.53
2022-08-09T13:09:23.200Z,102948.34
2022-08-09T13:12:02.490Z,102954.56
2022-08-09T13:14:41.698Z,102945.59
2022-08-09T13:17:43.926Z,102951.84
2022-08-09T13:20:17.464Z,102947.25
2022-08-09T13:23:05.619Z,102951.78
2022-08-09T13:25:54.781Z,102954.56
2022-08-09T13:28:35.675Z,102948.28
2022-08-09T13:32:17.472Z,102958.16
2022-08-09T13:34:02.719Z,102944.69
2022-08-09T13:36:42.107Z,102956.34
2022-08-09T13:41:51.050Z,102949.19
2022-08-09T13:42:02.809Z,102957.25
2022-08-09T13:44:32.187Z,102959.88
2022-08-09T13:47:27.405Z,102956.97
2022-08-09T13:49:55.954Z,102953.25
2022-08-09T13:52:26.497Z,102942.47
2022-08-09T13:55:00.269Z,102946.97
2022-08-09T13:57:39.295Z,102946.00
2022-08-09T14:00:19.765Z,102952.22
2022-08-09T14:03:04.498Z,102946.97
2022-08-09T14:06:00.332Z,102954.16
2022-08-09T14:08:31.618Z,102948.63
2022-08-09T14:11:01.291Z,102945.97
2022-08-09T14:14:22.876Z,102945.28
2022-08-09T14:16:28.193Z,102947.22
2022-08-09T14:18:58.353Z,102941.13
2022-08-09T14:21:29.132Z,102942.09
2022-08-09T14:24:01.321Z,102944.78
2022-08-09T14:26:38.498Z,102933.06
2022-08-09T14:30:04.360Z,102938.34
2022-08-09T14:32:06.092Z,102943.72
2022-08-09T14:34:42.045Z,102949.19
2022-08-09T14:37:11.909Z,102954.66
2022-08-09T14:39:46.789Z,102941.19
2022-08-09T14:42:32.095Z,102943.81
2022-08-09T14:46:51.435Z,102952.84
2022-08-09T14:47:58.233Z,102948.41
2022-08-09T14:50:30.869Z,102940.47
2022-08-09T14:53:10.967Z,102935.09
2022-08-09T14:55:50.082Z,102943.09
2022-08-09T14:58:19.658Z,102935.88
2022-08-09T15:00:51.300Z,102938.53
2022-08-09T15:03:21.038Z,102941.34
2022-08-09T15:05:53.803Z,102940.53
2022-08-09T15:08:26.595Z,102941.47
2022-08-09T15:11:00.873Z,102934.25
2022-08-09T15:13:56.093Z,102942.31
2022-08-09T15:16:19.797Z,102935.19
2022-08-09T15:18:49.265Z,102931.72
2022-08-09T15:21:56.134Z,102933.53
2022-08-09T15:24:12.958Z,102927.34
2022-08-09T15:26:45.909Z,102942.78
2022-08-09T15:30:58.280Z,102926.78
2022-08-09T15:32:04.852Z,102934.88
2022-08-09T15:34:35.290Z,102925.09
2022-08-09T15:37:36.905Z,102918.84
2022-08-09T15:40:13.376Z,102914.34
2022-08-09T15:42:44.310Z,102916.19
2022-08-09T15:45:13.539Z,102924.31
2022-08-09T15:48:02.460Z,102921.72
2022-08-09T15:50:32.845Z,102923.56
2022-08-09T15:53:06.731Z,102923.66
2022-08-09T15:56:18.051Z,102915.59
2022-08-09T15:58:36.310Z,102918.38
2022-08-09T16:01:04.799Z,102919.41
2022-08-09T16:03:38.559Z,102918.56
2022-08-09T16:06:16.166Z,102932.88
2022-08-09T16:09:01.145Z,102931.13
2022-08-09T16:11:32.920Z,102931.09
2022-08-09T16:14:08.302Z,102927.50
2022-08-09T16:16:39.065Z,102923.94
2022-08-09T16:19:13.451Z,102922.19
2022-08-09T16:21:51.738Z,102928.50
2022-08-09T16:24:33.715Z,102932.22
2022-08-09T16:27:05.059Z,102928.69
2022-08-09T16:29:37.844Z,102927.81
2022-08-09T16:32:49.335Z,102935.00
2022-08-09T16:35:07.412Z,102931.47
2022-08-09T16:37:53.487Z,102931.53
2022-08-09T16:40:29.948Z,102923.56
2022-08-09T16:43:09.896Z,102928.94
2022-08-09T16:45:43.616Z,102937.91
2022-08-09T16:48:50.479Z,102933.50
2022-08-09T16:51:07.454Z,102940.72
2022-08-09T16:53:37.539Z,102940.78
2022-08-09T16:56:13.428Z,102938.16
2022-08-09T16:58:42.736Z,102936.41
2022-08-09T17:01:24.783Z,102941.75
2022-08-09T17:04:06.661Z,102935.56
2022-08-09T17:07:03.886Z,102936.47
2022-08-09T17:09:46.255Z,102934.72
2022-08-09T17:12:14.768Z,102930.28
2022-08-09T17:14:47.757Z,102937.41
2022-08-09T17:17:26.868Z,102932.94
2022-08-09T17:20:32.695Z,102942.78
2022-08-09T17:22:49.915Z,102938.34
2022-08-09T17:25:22.316Z,102938.34
2022-08-09T17:27:53.667Z,102935.66
2022-08-09T17:30:26.482Z,102931.22
2022-08-09T17:33:04.798Z,102933.91
2022-08-09T17:35:41.237Z,102933.03
2022-08-09T17:38:30.640Z,102928.56
2022-08-09T17:41:02.857Z,102926.78
2022-08-09T17:43:37.050Z,102931.25
2022-08-09T17:46:09.603Z,102926.81
2022-08-09T17:48:51.754Z,102925.03
2022-08-09T17:51:22.250Z,102925.91
2022-08-09T17:53:55.268Z,102917.91
2022-08-09T17:56:28.943Z,102925.06
2022-08-09T17:59:11.465Z,102919.72
2022-08-09T18:02:07.721Z,102923.28
2022-08-09T18:04:31.035Z,102909.03
2022-08-09T18:06:59.873Z,102903.69
2022-08-09T18:09:40.737Z,102905.47
2022-08-09T18:12:19.550Z,102905.50
2022-08-09T18:14:54.889Z,102904.59
2022-08-09T18:18:01.576Z,102900.16
2022-08-09T18:20:53.814Z,102895.72
2022-08-09T18:23:07.598Z,102903.75
2022-08-09T18:25:50.852Z,102900.19
2022-08-09T18:30:40.620Z,102901.09
2022-08-09T18:31:24.738Z,102892.19
2022-08-09T18:34:03.815Z,102905.56
2022-08-09T18:36:36.372Z,102898.44
2022-08-09T18:39:11.153Z,102888.63
2022-08-09T18:41:53.012Z,102902.88
2022-08-09T18:44:25.684Z,102901.97
2022-08-09T18:47:07.878Z,102903.75
2022-08-09T18:49:46.678Z,102904.66
2022-08-09T18:52:18.725Z,102905.53
2022-08-09T18:54:53.743Z,102904.69
2022-08-09T18:57:38.487Z,102902.00
2022-08-09T19:00:19.093Z,102896.66
2022-08-09T19:02:51.060Z,102900.25
2022-08-09T19:06:01.886Z,102906.50
2022-08-09T19:08:18.241Z,102902.00
2022-08-09T19:10:48.492Z,102903.78
2022-08-09T19:13:20.461Z,102913.59
2022-08-09T19:15:53.009Z,102908.28
2022-08-09T19:18:34.143Z,102918.94
2022-08-09T19:21:09.661Z,102924.28
2022-08-09T19:24:32.337Z,102933.19
2022-08-09T19:26:32.441Z,102937.66
2022-08-09T19:29:09.424Z,102938.53
2022-08-09T19:31:46.103Z,102945.66
2022-08-09T19:34:22.258Z,102947.41
2022-08-09T19:36:54.538Z,102947.41
2022-08-09T19:39:29.293Z,102965.22
2022-08-09T19:42:15.075Z,102960.78
2022-08-09T19:44:50.928Z,102960.75
2022-08-09T19:47:23.442Z,102962.56
2022-08-09T19:50:08.755Z,102962.50
2022-08-09T19:52:49.460Z,102963.38
2022-08-09T19:55:25.626Z,102969.63
2022-08-09T19:57:59.753Z,102971.38
2022-08-09T20:00:28.406Z,102969.56
2022-08-09T20:04:17.216Z,102967.78
2022-08-09T20:05:50.677Z,102967.78
2022-08-09T20:08:33.248Z,102966.00
2022-08-09T20:11:06.699Z,102968.66
2022-08-09T20:13:37.312Z,102965.09
2022-08-09T20:16:35.698Z,102977.53
2022-08-09T20:19:42.500Z,102975.75
2022-08-09T20:21:56.853Z,102969.50
2022-08-09T20:24:33.530Z,102962.38
2022-08-09T20:27:05.614Z,102966.81
2022-08-09T20:29:39.080Z,102965.03
2022-08-09T20:32:30.351Z,102972.09
2022-08-09T20:34:59.567Z,102971.22
2022-08-09T20:37:37.698Z,102969.44
2022-08-09T20:40:27.238Z,102964.97
2022-08-09T20:43:18.666Z,102972.94
2022-08-09T20:46:00.802Z,102964.94
2022-08-09T20:48:39.930Z,102959.59
2022-08-09T20:51:19.195Z,102959.59
2022-08-09T20:53:48.933Z,102963.13
2022-08-09T20:56:21.513Z,102949.75
2022-08-09T20:58:54.718Z,102959.53
2022-08-09T21:01:35.121Z,102951.50
2022-08-09T21:05:52.347Z,102960.41
2022-08-09T21:07:12.080Z,102955.94
2022-08-09T21:09:46.029Z,102951.47
2022-08-09T21:12:56.359Z,102948.81
2022-08-09T21:15:17.772Z,102952.31
2022-08-09T21:18:21.069Z,102939.88
2022-08-09T21:20:54.387Z,102941.66
2022-08-09T21:23:47.591Z,102950.47
2022-08-09T21:26:15.842Z,102948.69
2022-08-09T21:28:51.803Z,102946.00
2022-08-09T21:31:49.346Z,102941.53
2022-08-09T21:34:28.547Z,102939.75
2022-08-09T21:36:58.696Z,102941.50
2022-08-09T21:39:28.121Z,102948.59
2022-08-09T21:42:11.229Z,102944.16
2022-08-09T21:44:43.674Z,102946.78
2022-08-09T21:47:18.222Z,102944.13
2022-08-09T21:49:48.288Z,102938.75
2022-08-09T21:52:20.542Z,102944.09
2022-08-09T21:55:03.476Z,102946.75
2022-08-09T21:57:37.501Z,102944.97
2022-08-09T22:00:25.288Z,102940.50
2022-08-09T22:02:59.206Z,102948.50
2022-08-09T22:05:37.106Z,102939.59
2022-08-09T22:08:13.015Z,102944.91
2022-08-09T22:11:49.319Z,102949.38
2022-08-09T22:13:35.450Z,102949.38
2022-08-09T22:16:09.233Z,102945.81
2022-08-09T22:18:53.330Z,102956.47
2022-08-09T22:21:27.539Z,102959.09
2022-08-09T22:24:17.096Z,102950.22
2022-08-09T22:26:51.123Z,102953.75
2022-08-09T22:29:27.051Z,102951.06
2022-08-09T22:32:00.958Z,102951.97
2022-08-09T22:34:29.290Z,102951.97
2022-08-09T22:37:00.613Z,102952.84
2022-08-09T22:39:55.481Z,102950.19
2022-08-09T22:42:21.992Z,102946.59
2022-08-09T22:45:00.076Z,102953.72
2022-08-09T22:48:14.692Z,102941.25
2022-08-09T22:50:32.687Z,102930.59
2022-08-09T22:53:03.951Z,102930.59
2022-08-09T22:56:06.554Z,102930.59
2022-08-09T22:58:32.887Z,102926.16
2022-08-09T23:01:03.752Z,102935.91
2022-08-09T23:04:03.974Z,102921.69
2022-08-09T23:06:35.005Z,102932.34
2022-08-09T23:09:06.243Z,102925.25
2022-08-09T23:11:35.091Z,102927.91
2022-08-09T23:14:04.135Z,102927.03
2022-08-09T23:16:38.820Z,102926.09
2022-08-09T23:19:07.174Z,102921.66
2022-08-09T23:21:38.540Z,102919.88
2022-08-09T23:24:08.822Z,102917.22
2022-08-09T23:26:39.118Z,102918.97
2022-08-09T23:29:11.389Z,102908.31
2022-08-09T23:31:41.239Z,102911.84
2022-08-09T23:34:09.685Z,102913.59
2022-08-09T23:36:38.987Z,102904.72
2022-08-09T23:39:08.085Z,102909.16
2022-08-09T23:41:36.597Z,102896.69
2022-08-09T23:44:05.268Z,102906.47
2022-08-09T23:46:34.377Z,102902.00
2022-08-09T23:49:03.307Z,102898.44
2022-08-09T23:51:31.655Z,102910.88
2022-08-09T23:54:03.572Z,102913.53
2022-08-09T23:56:52.393Z,102909.09
2022-08-09T23:59:22.948Z,102915.31
